sensor_id;sensor_type;location;lat;lon;timestamp;temperature;humidity
68354;DHT22;55274;43.060;25.618;2022-08-14T00:02:04;21.10;79.30
68354;DHT22;55274;43.060;25.618;2022-08-14T00:04:31;21.10;79.30
68354;DHT22;55274;43.060;25.618;2022-08-14T00:06:57;21.10;79.50
68354;DHT22;55274;43.060;25.618;2022-08-14T00:09:23;21.10;79.50
68354;DHT22;55274;43.060;25.618;2022-08-14T00:11:49;21.10;79.30
68354;DHT22;55274;43.060;25.618;2022-08-14T00:14:15;21.10;79.50
68354;DHT22;55274;43.060;25.618;2022-08-14T00:16:41;21.10;79.60
68354;DHT22;55274;43.060;25.618;2022-08-14T00:19:08;21.10;79.60
68354;DHT22;55274;43.060;25.618;2022-08-14T00:21:34;21.10;79.90
68354;DHT22;55274;43.060;25.618;2022-08-14T00:23:59;21.10;80.00
68354;DHT22;55274;43.060;25.618;2022-08-14T00:26:25;21.10;80.00
68354;DHT22;55274;43.060;25.618;2022-08-14T00:28:52;21.10;79.80
68354;DHT22;55274;43.060;25.618;2022-08-14T00:31:18;21.10;79.80
68354;DHT22;55274;43.060;25.618;2022-08-14T00:33:44;21.10;80.10
68354;DHT22;55274;43.060;25.618;2022-08-14T00:36:10;21.00;80.00
68354;DHT22;55274;43.060;25.618;2022-08-14T00:38:36;21.10;80.00
68354;DHT22;55274;43.060;25.618;2022-08-14T00:41:04;21.10;80.00
68354;DHT22;55274;43.060;25.618;2022-08-14T00:43:35;21.10;79.90
68354;DHT22;55274;43.060;25.618;2022-08-14T00:46:03;21.00;79.90
68354;DHT22;55274;43.060;25.618;2022-08-14T00:48:29;21.00;79.90
68354;DHT22;55274;43.060;25.618;2022-08-14T00:50:55;21.00;79.90
68354;DHT22;55274;43.060;25.618;2022-08-14T00:53:21;21.00;79.70
68354;DHT22;55274;43.060;25.618;2022-08-14T00:55:49;21.00;80.00
68354;DHT22;55274;43.060;25.618;2022-08-14T00:58:16;21.00;80.00
68354;DHT22;55274;43.060;25.618;2022-08-14T01:01:05;21.00;80.20
68354;DHT22;55274;43.060;25.618;2022-08-14T01:03:33;21.10;79.90
68354;DHT22;55274;43.060;25.618;2022-08-14T01:06:02;21.10;80.10
68354;DHT22;55274;43.060;25.618;2022-08-14T01:08:29;21.00;80.40
68354;DHT22;55274;43.060;25.618;2022-08-14T01:10:56;21.00;80.50
68354;DHT22;55274;43.060;25.618;2022-08-14T01:13:28;21.00;80.50
68354;DHT22;55274;43.060;25.618;2022-08-14T01:15:56;21.00;80.60
68354;DHT22;55274;43.060;25.618;2022-08-14T01:18:23;20.90;80.10
68354;DHT22;55274;43.060;25.618;2022-08-14T01:21:09;21.00;80.00
68354;DHT22;55274;43.060;25.618;2022-08-14T01:23:46;20.90;80.80
68354;DHT22;55274;43.060;25.618;2022-08-14T01:26:14;20.90;80.80
68354;DHT22;55274;43.060;25.618;2022-08-14T01:28:40;20.90;80.60
68354;DHT22;55274;43.060;25.618;2022-08-14T01:31:13;20.90;80.40
68354;DHT22;55274;43.060;25.618;2022-08-14T01:33:40;20.90;80.30
68354;DHT22;55274;43.060;25.618;2022-08-14T01:36:09;21.00;79.90
68354;DHT22;55274;43.060;25.618;2022-08-14T01:38:36;21.00;79.60
68354;DHT22;55274;43.060;25.618;2022-08-14T01:41:15;21.00;79.90
68354;DHT22;55274;43.060;25.618;2022-08-14T01:43:48;21.00;80.00
68354;DHT22;55274;43.060;25.618;2022-08-14T01:46:23;21.00;80.40
68354;DHT22;55274;43.060;25.618;2022-08-14T01:48:50;21.00;80.40
68354;DHT22;55274;43.060;25.618;2022-08-14T01:51:19;21.00;80.60
68354;DHT22;55274;43.060;25.618;2022-08-14T01:54:12;20.90;80.40
68354;DHT22;55274;43.060;25.618;2022-08-14T01:56:39;20.90;80.60
68354;DHT22;55274;43.060;25.618;2022-08-14T01:59:07;20.90;80.80
68354;DHT22;55274;43.060;25.618;2022-08-14T02:01:34;20.90;80.80
68354;DHT22;55274;43.060;25.618;2022-08-14T02:04:01;20.90;81.10
68354;DHT22;55274;43.060;25.618;2022-08-14T02:06:28;20.90;80.80
68354;DHT22;55274;43.060;25.618;2022-08-14T02:08:54;20.90;80.70
68354;DHT22;55274;43.060;25.618;2022-08-14T02:11:21;20.90;81.00
68354;DHT22;55274;43.060;25.618;2022-08-14T02:13:58;20.80;80.90
68354;DHT22;55274;43.060;25.618;2022-08-14T02:16:27;20.80;81.10
68354;DHT22;55274;43.060;25.618;2022-08-14T02:18:59;20.70;81.30
68354;DHT22;55274;43.060;25.618;2022-08-14T02:21:28;20.70;81.30
68354;DHT22;55274;43.060;25.618;2022-08-14T02:23:59;20.70;81.70
68354;DHT22;55274;43.060;25.618;2022-08-14T02:26:44;20.70;81.60
68354;DHT22;55274;43.060;25.618;2022-08-14T02:29:18;20.70;81.50
68354;DHT22;55274;43.060;25.618;2022-08-14T02:31:49;20.70;81.40
68354;DHT22;55274;43.060;25.618;2022-08-14T02:34:27;20.80;81.20
68354;DHT22;55274;43.060;25.618;2022-08-14T02:36:57;20.70;81.40
68354;DHT22;55274;43.060;25.618;2022-08-14T02:39:24;20.70;81.80
68354;DHT22;55274;43.060;25.618;2022-08-14T02:41:50;20.70;81.30
68354;DHT22;55274;43.060;25.618;2022-08-14T02:44:17;20.70;81.60
68354;DHT22;55274;43.060;25.618;2022-08-14T02:46:46;20.70;81.60
68354;DHT22;55274;43.060;25.618;2022-08-14T02:49:12;20.70;81.30
68354;DHT22;55274;43.060;25.618;2022-08-14T02:51:38;20.80;81.20
68354;DHT22;55274;43.060;25.618;2022-08-14T02:54:07;20.80;81.60
68354;DHT22;55274;43.060;25.618;2022-08-14T02:56:33;20.80;82.00
68354;DHT22;55274;43.060;25.618;2022-08-14T02:59:04;20.70;81.80
68354;DHT22;55274;43.060;25.618;2022-08-14T03:01:30;20.70;82.00
68354;DHT22;55274;43.060;25.618;2022-08-14T03:03:56;20.70;82.20
68354;DHT22;55274;43.060;25.618;2022-08-14T03:06:22;20.60;82.20
68354;DHT22;55274;43.060;25.618;2022-08-14T03:08:49;20.60;82.40
68354;DHT22;55274;43.060;25.618;2022-08-14T03:11:15;20.60;82.30
68354;DHT22;55274;43.060;25.618;2022-08-14T03:13:44;20.60;82.20
68354;DHT22;55274;43.060;25.618;2022-08-14T03:16:13;20.60;82.40
68354;DHT22;55274;43.060;25.618;2022-08-14T03:18:41;20.60;82.40
68354;DHT22;55274;43.060;25.618;2022-08-14T03:21:09;20.50;82.30
68354;DHT22;55274;43.060;25.618;2022-08-14T03:23:38;20.50;82.40
68354;DHT22;55274;43.060;25.618;2022-08-14T03:26:08;20.60;82.30
68354;DHT22;55274;43.060;25.618;2022-08-14T03:28:34;20.50;82.50
68354;DHT22;55274;43.060;25.618;2022-08-14T03:31:00;20.60;82.50
68354;DHT22;55274;43.060;25.618;2022-08-14T03:33:28;20.50;82.50
68354;DHT22;55274;43.060;25.618;2022-08-14T03:35:54;20.50;82.20
68354;DHT22;55274;43.060;25.618;2022-08-14T03:38:20;20.60;82.20
68354;DHT22;55274;43.060;25.618;2022-08-14T03:40:45;20.60;82.20
68354;DHT22;55274;43.060;25.618;2022-08-14T03:43:15;20.60;82.30
68354;DHT22;55274;43.060;25.618;2022-08-14T03:45:41;20.70;82.20
68354;DHT22;55274;43.060;25.618;2022-08-14T03:48:28;20.70;82.30
68354;DHT22;55274;43.060;25.618;2022-08-14T03:50:53;20.70;82.40
68354;DHT22;55274;43.060;25.618;2022-08-14T03:53:19;20.70;82.40
68354;DHT22;55274;43.060;25.618;2022-08-14T03:55:46;20.70;82.20
68354;DHT22;55274;43.060;25.618;2022-08-14T03:58:12;20.70;82.00
68354;DHT22;55274;43.060;25.618;2022-08-14T04:00:40;20.80;82.00
68354;DHT22;55274;43.060;25.618;2022-08-14T04:03:08;20.80;82.00
68354;DHT22;55274;43.060;25.618;2022-08-14T04:05:35;20.80;82.00
68354;DHT22;55274;43.060;25.618;2022-08-14T04:08:02;20.80;82.10
68354;DHT22;55274;43.060;25.618;2022-08-14T04:10:29;20.80;82.10
68354;DHT22;55274;43.060;25.618;2022-08-14T04:12:54;20.90;82.10
68354;DHT22;55274;43.060;25.618;2022-08-14T04:15:26;21.00;81.70
68354;DHT22;55274;43.060;25.618;2022-08-14T04:17:52;21.00;81.50
68354;DHT22;55274;43.060;25.618;2022-08-14T04:20:20;21.00;81.50
68354;DHT22;55274;43.060;25.618;2022-08-14T04:22:46;21.00;81.70
68354;DHT22;55274;43.060;25.618;2022-08-14T04:25:15;21.00;81.50
68354;DHT22;55274;43.060;25.618;2022-08-14T04:27:41;21.10;81.20
68354;DHT22;55274;43.060;25.618;2022-08-14T04:30:07;21.20;80.60
68354;DHT22;55274;43.060;25.618;2022-08-14T04:32:33;21.30;80.90
68354;DHT22;55274;43.060;25.618;2022-08-14T04:34:59;21.30;81.20
68354;DHT22;55274;43.060;25.618;2022-08-14T04:37:25;21.40;80.00
68354;DHT22;55274;43.060;25.618;2022-08-14T04:40:11;21.70;79.60
68354;DHT22;55274;43.060;25.618;2022-08-14T04:42:56;22.40;77.80
68354;DHT22;55274;43.060;25.618;2022-08-14T04:45:40;23.20;75.60
68354;DHT22;55274;43.060;25.618;2022-08-14T04:48:09;23.60;73.20
68354;DHT22;55274;43.060;25.618;2022-08-14T04:50:41;24.10;71.40
68354;DHT22;55274;43.060;25.618;2022-08-14T04:53:08;24.50;70.00
68354;DHT22;55274;43.060;25.618;2022-08-14T04:55:35;25.10;67.00
68354;DHT22;55274;43.060;25.618;2022-08-14T04:58:03;25.60;65.20
68354;DHT22;55274;43.060;25.618;2022-08-14T05:00:31;26.00;64.60
68354;DHT22;55274;43.060;25.618;2022-08-14T05:02:57;26.60;62.90
68354;DHT22;55274;43.060;25.618;2022-08-14T05:05:24;27.10;60.20
68354;DHT22;55274;43.060;25.618;2022-08-14T05:07:53;27.50;59.20
68354;DHT22;55274;43.060;25.618;2022-08-14T05:10:18;27.80;57.30
68354;DHT22;55274;43.060;25.618;2022-08-14T05:12:51;28.10;56.80
68354;DHT22;55274;43.060;25.618;2022-08-14T05:15:18;28.60;55.30
68354;DHT22;55274;43.060;25.618;2022-08-14T05:17:46;29.10;53.80
68354;DHT22;55274;43.060;25.618;2022-08-14T05:20:11;29.70;51.80
68354;DHT22;55274;43.060;25.618;2022-08-14T05:22:37;30.10;51.30
68354;DHT22;55274;43.060;25.618;2022-08-14T05:25:04;30.60;49.50
68354;DHT22;55274;43.060;25.618;2022-08-14T05:27:30;30.70;48.40
68354;DHT22;55274;43.060;25.618;2022-08-14T05:29:55;31.20;48.60
68354;DHT22;55274;43.060;25.618;2022-08-14T05:32:23;31.40;47.40
68354;DHT22;55274;43.060;25.618;2022-08-14T05:34:49;31.60;46.50
68354;DHT22;55274;43.060;25.618;2022-08-14T05:37:14;31.90;45.60
68354;DHT22;55274;43.060;25.618;2022-08-14T05:39:40;31.90;45.00
68354;DHT22;55274;43.060;25.618;2022-08-14T05:42:06;31.90;45.50
68354;DHT22;55274;43.060;25.618;2022-08-14T05:44:32;32.10;45.00
68354;DHT22;55274;43.060;25.618;2022-08-14T05:46:58;31.90;45.30
68354;DHT22;55274;43.060;25.618;2022-08-14T05:49:25;32.10;45.40
68354;DHT22;55274;43.060;25.618;2022-08-14T05:51:50;32.10;45.30
68354;DHT22;55274;43.060;25.618;2022-08-14T05:54:16;32.40;44.30
68354;DHT22;55274;43.060;25.618;2022-08-14T05:56:42;32.20;44.20
68354;DHT22;55274;43.060;25.618;2022-08-14T05:59:09;32.20;44.40
68354;DHT22;55274;43.060;25.618;2022-08-14T06:01:35;32.30;43.60
68354;DHT22;55274;43.060;25.618;2022-08-14T06:04:01;32.50;43.10
68354;DHT22;55274;43.060;25.618;2022-08-14T06:06:27;32.40;42.20
68354;DHT22;55274;43.060;25.618;2022-08-14T06:08:53;32.70;41.60
68354;DHT22;55274;43.060;25.618;2022-08-14T06:11:18;31.90;42.90
68354;DHT22;55274;43.060;25.618;2022-08-14T06:13:44;31.90;43.60
68354;DHT22;55274;43.060;25.618;2022-08-14T06:16:11;32.30;43.20
68354;DHT22;55274;43.060;25.618;2022-08-14T06:18:37;32.30;43.10
68354;DHT22;55274;43.060;25.618;2022-08-14T06:21:03;32.30;43.10
68354;DHT22;55274;43.060;25.618;2022-08-14T06:23:29;32.30;42.80
68354;DHT22;55274;43.060;25.618;2022-08-14T06:25:55;32.30;42.70
68354;DHT22;55274;43.060;25.618;2022-08-14T06:28:23;32.20;42.60
68354;DHT22;55274;43.060;25.618;2022-08-14T06:30:50;31.90;43.30
68354;DHT22;55274;43.060;25.618;2022-08-14T06:33:17;32.00;43.60
68354;DHT22;55274;43.060;25.618;2022-08-14T06:35:43;31.80;43.40
68354;DHT22;55274;43.060;25.618;2022-08-14T06:38:14;31.50;44.40
68354;DHT22;55274;43.060;25.618;2022-08-14T06:40:41;31.40;44.00
68354;DHT22;55274;43.060;25.618;2022-08-14T06:43:09;31.40;44.20
68354;DHT22;55274;43.060;25.618;2022-08-14T06:45:40;31.20;44.70
68354;DHT22;55274;43.060;25.618;2022-08-14T06:48:21;31.00;45.40
68354;DHT22;55274;43.060;25.618;2022-08-14T06:50:49;30.70;45.40
68354;DHT22;55274;43.060;25.618;2022-08-14T06:53:15;30.80;45.60
68354;DHT22;55274;43.060;25.618;2022-08-14T06:55:45;30.80;45.20
68354;DHT22;55274;43.060;25.618;2022-08-14T06:58:15;30.90;45.50
68354;DHT22;55274;43.060;25.618;2022-08-14T07:00:41;30.80;45.40
68354;DHT22;55274;43.060;25.618;2022-08-14T07:03:31;30.60;45.50
68354;DHT22;55274;43.060;25.618;2022-08-14T07:06:16;30.60;46.10
68354;DHT22;55274;43.060;25.618;2022-08-14T07:08:43;30.30;46.60
68354;DHT22;55274;43.060;25.618;2022-08-14T07:11:10;30.50;46.40
68354;DHT22;55274;43.060;25.618;2022-08-14T07:13:36;30.50;46.00
68354;DHT22;55274;43.060;25.618;2022-08-14T07:16:02;30.60;46.10
68354;DHT22;55274;43.060;25.618;2022-08-14T07:18:30;30.80;45.50
68354;DHT22;55274;43.060;25.618;2022-08-14T07:20:58;30.80;45.20
68354;DHT22;55274;43.060;25.618;2022-08-14T07:23:24;30.60;45.70
68354;DHT22;55274;43.060;25.618;2022-08-14T07:25:53;30.60;46.60
68354;DHT22;55274;43.060;25.618;2022-08-14T07:28:24;30.80;45.80
68354;DHT22;55274;43.060;25.618;2022-08-14T07:30:52;30.70;44.90
68354;DHT22;55274;43.060;25.618;2022-08-14T07:33:23;31.00;44.80
68354;DHT22;55274;43.060;25.618;2022-08-14T07:35:49;31.00;45.10
68354;DHT22;55274;43.060;25.618;2022-08-14T07:38:20;31.30;44.60
68354;DHT22;55274;43.060;25.618;2022-08-14T07:40:47;31.30;44.30
68354;DHT22;55274;43.060;25.618;2022-08-14T07:43:13;31.90;43.20
68354;DHT22;55274;43.060;25.618;2022-08-14T07:45:40;32.20;43.10
68354;DHT22;55274;43.060;25.618;2022-08-14T07:48:06;32.40;41.20
68354;DHT22;55274;43.060;25.618;2022-08-14T07:50:32;32.50;41.20
68354;DHT22;55274;43.060;25.618;2022-08-14T07:52:59;32.70;40.80
68354;DHT22;55274;43.060;25.618;2022-08-14T07:55:25;33.00;40.80
68354;DHT22;55274;43.060;25.618;2022-08-14T07:57:51;33.00;40.20
68354;DHT22;55274;43.060;25.618;2022-08-14T08:00:22;33.00;40.10
68354;DHT22;55274;43.060;25.618;2022-08-14T08:02:50;32.80;39.70
68354;DHT22;55274;43.060;25.618;2022-08-14T08:05:17;33.00;40.30
68354;DHT22;55274;43.060;25.618;2022-08-14T08:07:45;33.00;40.40
68354;DHT22;55274;43.060;25.618;2022-08-14T08:10:14;32.60;39.90
68354;DHT22;55274;43.060;25.618;2022-08-14T08:13:06;32.30;41.30
68354;DHT22;55274;43.060;25.618;2022-08-14T08:15:35;32.50;40.60
68354;DHT22;55274;43.060;25.618;2022-08-14T08:18:03;33.10;39.80
68354;DHT22;55274;43.060;25.618;2022-08-14T08:20:31;33.30;39.20
68354;DHT22;55274;43.060;25.618;2022-08-14T08:22:58;33.00;39.00
68354;DHT22;55274;43.060;25.618;2022-08-14T08:25:28;33.00;39.50
68354;DHT22;55274;43.060;25.618;2022-08-14T08:30:30;33.50;38.70
68354;DHT22;55274;43.060;25.618;2022-08-14T08:32:58;33.60;38.20
68354;DHT22;55274;43.060;25.618;2022-08-14T08:35:27;33.40;38.80
68354;DHT22;55274;43.060;25.618;2022-08-14T08:37:54;33.50;38.60
68354;DHT22;55274;43.060;25.618;2022-08-14T08:40:28;33.30;39.20
68354;DHT22;55274;43.060;25.618;2022-08-14T08:42:54;32.50;40.30
68354;DHT22;55274;43.060;25.618;2022-08-14T08:45:21;32.30;41.50
68354;DHT22;55274;43.060;25.618;2022-08-14T08:47:48;32.30;41.30
68354;DHT22;55274;43.060;25.618;2022-08-14T08:50:36;32.50;41.10
68354;DHT22;55274;43.060;25.618;2022-08-14T08:53:09;32.30;41.30
68354;DHT22;55274;43.060;25.618;2022-08-14T08:55:38;32.10;41.50
68354;DHT22;55274;43.060;25.618;2022-08-14T08:58:06;32.00;41.70
68354;DHT22;55274;43.060;25.618;2022-08-14T09:00:34;31.90;41.90
68354;DHT22;55274;43.060;25.618;2022-08-14T09:05:30;32.00;42.70
68354;DHT22;55274;43.060;25.618;2022-08-14T09:08:10;32.30;42.30
68354;DHT22;55274;43.060;25.618;2022-08-14T09:10:36;33.00;41.20
68354;DHT22;55274;43.060;25.618;2022-08-14T09:13:03;33.70;39.30
68354;DHT22;55274;43.060;25.618;2022-08-14T09:15:29;33.40;39.20
68354;DHT22;55274;43.060;25.618;2022-08-14T09:17:55;33.20;39.90
68354;DHT22;55274;43.060;25.618;2022-08-14T09:20:22;33.00;40.80
68354;DHT22;55274;43.060;25.618;2022-08-14T09:22:49;33.00;40.60
68354;DHT22;55274;43.060;25.618;2022-08-14T09:25:16;33.40;39.80
68354;DHT22;55274;43.060;25.618;2022-08-14T09:27:42;33.60;39.00
68354;DHT22;55274;43.060;25.618;2022-08-14T09:30:09;33.40;38.70
68354;DHT22;55274;43.060;25.618;2022-08-14T09:38:15;32.70;40.00
68354;DHT22;55274;43.060;25.618;2022-08-14T09:46:10;33.30;39.20
68354;DHT22;55274;43.060;25.618;2022-08-14T09:48:37;33.60;38.40
68354;DHT22;55274;43.060;25.618;2022-08-14T09:51:06;33.80;37.80
68354;DHT22;55274;43.060;25.618;2022-08-14T09:53:44;33.70;38.00
68354;DHT22;55274;43.060;25.618;2022-08-14T09:56:13;33.50;38.50
68354;DHT22;55274;43.060;25.618;2022-08-14T09:58:40;33.30;39.10
68354;DHT22;55274;43.060;25.618;2022-08-14T10:03:36;32.90;39.30
68354;DHT22;55274;43.060;25.618;2022-08-14T10:06:04;32.70;39.60
68354;DHT22;55274;43.060;25.618;2022-08-14T10:08:48;32.60;39.90
68354;DHT22;55274;43.060;25.618;2022-08-14T10:11:26;33.00;40.10
68354;DHT22;55274;43.060;25.618;2022-08-14T10:13:56;33.50;38.50
68354;DHT22;55274;43.060;25.618;2022-08-14T10:16:24;34.00;38.30
68354;DHT22;55274;43.060;25.618;2022-08-14T10:19:10;34.30;37.20
68354;DHT22;55274;43.060;25.618;2022-08-14T10:21:39;34.30;37.40
68354;DHT22;55274;43.060;25.618;2022-08-14T10:24:05;34.40;36.90
68354;DHT22;55274;43.060;25.618;2022-08-14T10:26:34;34.30;36.80
68354;DHT22;55274;43.060;25.618;2022-08-14T10:29:09;33.90;37.00
68354;DHT22;55274;43.060;25.618;2022-08-14T10:31:37;33.30;38.00
68354;DHT22;55274;43.060;25.618;2022-08-14T10:34:04;32.80;38.70
68354;DHT22;55274;43.060;25.618;2022-08-14T10:36:32;32.70;39.50
68354;DHT22;55274;43.060;25.618;2022-08-14T10:39:01;32.60;39.70
68354;DHT22;55274;43.060;25.618;2022-08-14T10:41:39;32.60;39.70
68354;DHT22;55274;43.060;25.618;2022-08-14T10:44:07;32.30;40.20
68354;DHT22;55274;43.060;25.618;2022-08-14T10:46:43;32.30;40.20
68354;DHT22;55274;43.060;25.618;2022-08-14T10:49:36;32.50;39.90
68354;DHT22;55274;43.060;25.618;2022-08-14T10:52:10;32.60;39.70
68354;DHT22;55274;43.060;25.618;2022-08-14T10:54:46;32.50;39.50
68354;DHT22;55274;43.060;25.618;2022-08-14T10:59:52;32.60;39.80
68354;DHT22;55274;43.060;25.618;2022-08-14T11:07:31;32.60;39.60
68354;DHT22;55274;43.060;25.618;2022-08-14T11:10:03;32.60;39.80
68354;DHT22;55274;43.060;25.618;2022-08-14T11:13:04;32.70;40.00
68354;DHT22;55274;43.060;25.618;2022-08-14T11:15:32;32.80;39.40
68354;DHT22;55274;43.060;25.618;2022-08-14T11:17:58;32.60;40.20
68354;DHT22;55274;43.060;25.618;2022-08-14T11:20:27;32.50;40.50
68354;DHT22;55274;43.060;25.618;2022-08-14T11:22:55;32.50;40.40
68354;DHT22;55274;43.060;25.618;2022-08-14T11:25:24;32.40;40.50
68354;DHT22;55274;43.060;25.618;2022-08-14T11:27:53;32.30;40.70
68354;DHT22;55274;43.060;25.618;2022-08-14T11:30:28;32.20;41.10
68354;DHT22;55274;43.060;25.618;2022-08-14T11:32:56;32.20;41.40
68354;DHT22;55274;43.060;25.618;2022-08-14T11:35:26;32.40;40.80
68354;DHT22;55274;43.060;25.618;2022-08-14T11:40:21;32.60;40.40
68354;DHT22;55274;43.060;25.618;2022-08-14T11:42:49;32.90;40.40
68354;DHT22;55274;43.060;25.618;2022-08-14T11:45:18;32.80;40.40
68354;DHT22;55274;43.060;25.618;2022-08-14T11:47:44;32.30;41.60
68354;DHT22;55274;43.060;25.618;2022-08-14T11:50:21;32.10;41.90
68354;DHT22;55274;43.060;25.618;2022-08-14T11:52:49;31.70;42.10
68354;DHT22;55274;43.060;25.618;2022-08-14T11:55:15;31.60;42.70
68354;DHT22;55274;43.060;25.618;2022-08-14T11:57:42;31.50;42.70
68354;DHT22;55274;43.060;25.618;2022-08-14T12:00:11;31.50;43.10
68354;DHT22;55274;43.060;25.618;2022-08-14T12:02:49;31.40;42.90
68354;DHT22;55274;43.060;25.618;2022-08-14T12:05:15;31.40;42.80
68354;DHT22;55274;43.060;25.618;2022-08-14T12:07:48;31.40;42.70
68354;DHT22;55274;43.060;25.618;2022-08-14T12:10:17;31.30;42.50
68354;DHT22;55274;43.060;25.618;2022-08-14T12:12:43;31.40;42.30
68354;DHT22;55274;43.060;25.618;2022-08-14T12:15:09;31.50;41.60
68354;DHT22;55274;43.060;25.618;2022-08-14T12:17:45;31.50;41.60
68354;DHT22;55274;43.060;25.618;2022-08-14T12:20:12;31.50;41.60
68354;DHT22;55274;43.060;25.618;2022-08-14T12:22:41;31.60;41.40
68354;DHT22;55274;43.060;25.618;2022-08-14T12:25:19;31.60;41.40
68354;DHT22;55274;43.060;25.618;2022-08-14T12:27:47;31.50;41.40
68354;DHT22;55274;43.060;25.618;2022-08-14T12:30:37;31.70;41.20
68354;DHT22;55274;43.060;25.618;2022-08-14T12:33:06;31.80;40.40
68354;DHT22;55274;43.060;25.618;2022-08-14T12:35:41;31.80;40.00
68354;DHT22;55274;43.060;25.618;2022-08-14T12:38:09;31.60;39.20
68354;DHT22;55274;43.060;25.618;2022-08-14T12:40:52;31.30;39.70
68354;DHT22;55274;43.060;25.618;2022-08-14T12:43:19;31.10;40.30
68354;DHT22;55274;43.060;25.618;2022-08-14T12:45:51;31.10;40.50
68354;DHT22;55274;43.060;25.618;2022-08-14T12:48:21;30.80;40.30
68354;DHT22;55274;43.060;25.618;2022-08-14T12:50:48;30.70;40.30
68354;DHT22;55274;43.060;25.618;2022-08-14T12:53:18;30.30;41.20
68354;DHT22;55274;43.060;25.618;2022-08-14T12:55:45;29.50;45.00
68354;DHT22;55274;43.060;25.618;2022-08-14T12:58:27;28.20;51.10
68354;DHT22;55274;43.060;25.618;2022-08-14T13:00:54;27.80;51.40
68354;DHT22;55274;43.060;25.618;2022-08-14T13:03:25;27.70;51.30
68354;DHT22;55274;43.060;25.618;2022-08-14T13:05:52;27.20;53.80
68354;DHT22;55274;43.060;25.618;2022-08-14T13:08:19;26.40;55.70
68354;DHT22;55274;43.060;25.618;2022-08-14T13:10:49;26.00;56.80
68354;DHT22;55274;43.060;25.618;2022-08-14T13:13:17;26.00;57.10
68354;DHT22;55274;43.060;25.618;2022-08-14T13:15:44;26.00;57.60
68354;DHT22;55274;43.060;25.618;2022-08-14T13:18:12;26.00;57.40
68354;DHT22;55274;43.060;25.618;2022-08-14T13:20:39;26.30;56.90
68354;DHT22;55274;43.060;25.618;2022-08-14T13:23:06;26.60;55.90
68354;DHT22;55274;43.060;25.618;2022-08-14T13:25:34;26.60;56.10
68354;DHT22;55274;43.060;25.618;2022-08-14T13:28:03;26.30;57.10
68354;DHT22;55274;43.060;25.618;2022-08-14T13:30:31;25.90;58.10
68354;DHT22;55274;43.060;25.618;2022-08-14T13:32:57;25.80;59.00
68354;DHT22;55274;43.060;25.618;2022-08-14T13:35:25;25.80;59.10
68354;DHT22;55274;43.060;25.618;2022-08-14T13:37:51;25.90;58.70
68354;DHT22;55274;43.060;25.618;2022-08-14T13:40:19;25.90;59.00
68354;DHT22;55274;43.060;25.618;2022-08-14T13:42:48;25.90;58.90
68354;DHT22;55274;43.060;25.618;2022-08-14T13:45:15;25.70;60.30
68354;DHT22;55274;43.060;25.618;2022-08-14T13:47:42;25.80;59.80
68354;DHT22;55274;43.060;25.618;2022-08-14T13:50:11;25.90;59.70
68354;DHT22;55274;43.060;25.618;2022-08-14T13:52:44;25.80;60.60
68354;DHT22;55274;43.060;25.618;2022-08-14T13:55:14;25.60;61.30
68354;DHT22;55274;43.060;25.618;2022-08-14T13:57:42;25.50;62.10
68354;DHT22;55274;43.060;25.618;2022-08-14T14:00:11;25.40;62.70
68354;DHT22;55274;43.060;25.618;2022-08-14T14:02:39;25.30;62.90
68354;DHT22;55274;43.060;25.618;2022-08-14T14:05:07;25.20;63.70
68354;DHT22;55274;43.060;25.618;2022-08-14T14:07:34;25.30;63.20
68354;DHT22;55274;43.060;25.618;2022-08-14T14:10:03;25.40;63.50
68354;DHT22;55274;43.060;25.618;2022-08-14T14:12:30;25.30;63.80
68354;DHT22;55274;43.060;25.618;2022-08-14T14:14:58;25.30;64.10
68354;DHT22;55274;43.060;25.618;2022-08-14T14:17:25;25.20;64.10
68354;DHT22;55274;43.060;25.618;2022-08-14T14:19:52;25.10;64.60
68354;DHT22;55274;43.060;25.618;2022-08-14T14:22:18;24.80;66.50
68354;DHT22;55274;43.060;25.618;2022-08-14T14:24:44;24.50;68.40
68354;DHT22;55274;43.060;25.618;2022-08-14T14:27:12;24.40;68.30
68354;DHT22;55274;43.060;25.618;2022-08-14T14:29:42;24.30;69.20
68354;DHT22;55274;43.060;25.618;2022-08-14T14:32:15;24.10;69.80
68354;DHT22;55274;43.060;25.618;2022-08-14T14:34:42;24.30;70.00
68354;DHT22;55274;43.060;25.618;2022-08-14T14:37:10;24.30;69.30
68354;DHT22;55274;43.060;25.618;2022-08-14T14:39:37;24.40;69.00
68354;DHT22;55274;43.060;25.618;2022-08-14T14:42:04;24.40;69.60
68354;DHT22;55274;43.060;25.618;2022-08-14T14:44:37;24.30;69.90
68354;DHT22;55274;43.060;25.618;2022-08-14T14:47:12;24.20;71.50
68354;DHT22;55274;43.060;25.618;2022-08-14T14:49:43;24.30;71.30
68354;DHT22;55274;43.060;25.618;2022-08-14T14:52:12;24.20;73.20
68354;DHT22;55274;43.060;25.618;2022-08-14T14:54:38;24.10;74.00
68354;DHT22;55274;43.060;25.618;2022-08-14T14:57:04;23.90;74.00
68354;DHT22;55274;43.060;25.618;2022-08-14T14:59:31;23.90;74.90
68354;DHT22;55274;43.060;25.618;2022-08-14T15:02:03;23.70;77.70
68354;DHT22;55274;43.060;25.618;2022-08-14T15:04:34;23.60;77.00
68354;DHT22;55274;43.060;25.618;2022-08-14T15:07:00;23.50;78.00
68354;DHT22;55274;43.060;25.618;2022-08-14T15:09:28;23.40;79.00
68354;DHT22;55274;43.060;25.618;2022-08-14T15:11:55;23.20;80.30
68354;DHT22;55274;43.060;25.618;2022-08-14T15:14:22;23.00;80.90
68354;DHT22;55274;43.060;25.618;2022-08-14T15:16:48;22.80;81.60
68354;DHT22;55274;43.060;25.618;2022-08-14T15:19:14;22.60;82.60
68354;DHT22;55274;43.060;25.618;2022-08-14T15:21:40;22.60;83.10
68354;DHT22;55274;43.060;25.618;2022-08-14T15:24:06;22.60;83.50
68354;DHT22;55274;43.060;25.618;2022-08-14T15:26:32;22.60;83.60
68354;DHT22;55274;43.060;25.618;2022-08-14T15:29:04;22.60;84.00
68354;DHT22;55274;43.060;25.618;2022-08-14T15:31:31;22.60;84.40
68354;DHT22;55274;43.060;25.618;2022-08-14T15:33:56;22.40;85.70
68354;DHT22;55274;43.060;25.618;2022-08-14T15:36:41;22.40;86.00
68354;DHT22;55274;43.060;25.618;2022-08-14T15:39:09;22.40;86.40
68354;DHT22;55274;43.060;25.618;2022-08-14T15:41:34;22.50;86.90
68354;DHT22;55274;43.060;25.618;2022-08-14T15:44:00;22.40;87.60
68354;DHT22;55274;43.060;25.618;2022-08-14T15:46:26;22.40;86.70
68354;DHT22;55274;43.060;25.618;2022-08-14T15:48:52;22.40;86.10
68354;DHT22;55274;43.060;25.618;2022-08-14T15:51:18;22.40;86.50
68354;DHT22;55274;43.060;25.618;2022-08-14T15:53:45;22.30;87.60
68354;DHT22;55274;43.060;25.618;2022-08-14T15:56:11;22.30;87.80